Grace Nicole — WDC2451 — position and weather

sailwx.info

Track history (hours):
 
Tides and Currents Weather Stations Pressure Air Temp Water Temp Dewpoint Dewpoint Depression Visibility Wind Speed Wind Dir Waves Ship Positions

Grace Nicole

Owner: Florida Marine, LLC, Mandeville, LA. More information available from US FCC via Universal Licensing System and Coast Guard Vessel Documentation Center.

Last reported at 2017-Nov-12 15:24 UTC. Time now 2017-Nov-19 06:45 UTC.
Position N 29°51' W 091°55'.

Length 28 m; draft 9.6 m.

Type: Towing. MMSI: 366993380.

Date/timePositionNaut miles runAvg speedWind from/ knotsBaromVisibWave heightAir tempDewpointWater temp
2017-Nov-12 15:24N 29°51' W 091°55'2 5.1
2017-Nov-12 14:58N 29°50' W 091°57'2 4.9
2017-Nov-12 14:28N 29°50' W 091°60'3 5.5
2017-Nov-12 13:56N 29°49' W 092°03'2 5.2
2017-Nov-12 13:28N 29°48' W 092°06'2 5.1
2017-Nov-12 13:00N 29°47' W 092°08'2 4.8
2017-Nov-12 12:30N 29°47' W 092°11'2 2.6
2017-Nov-12 11:54N 29°47' W 092°13'1 0.9
2017-Nov-12 10:43N 29°48' W 092°14'0 0.0
2017-Nov-12 10:29N 29°48' W 092°14'0 0.0
2017-Nov-12 09:59N 29°48' W 092°14'0 0.4
2017-Nov-12 09:29N 29°48' W 092°14'1 1.1
2017-Nov-12 08:59N 29°48' W 092°15'0 0.9
2017-Nov-12 08:29N 29°48' W 092°15'137 3.8
2017-Nov-10 20:31N 29°29' W 094°52'1 6.6
2017-Nov-10 20:25N 29°30' W 094°52'3 6.3
2017-Nov-10 20:00N 29°32' W 094°54'3 6.5
2017-Nov-10 19:30N 29°34' W 094°56'3 6.4
2017-Nov-10 19:00N 29°37' W 094°58'3 6.5
2017-Nov-10 18:30N 29°40' W 094°59'4 6.1
2017-Nov-10 17:52N 29°44' W 095°01'0 0.1
2017-Nov-10 14:36N 29°44' W 095°01'0 0.0
2017-Nov-10 08:55N 29°44' W 095°01'0 0.0
2017-Nov-10 07:22N 29°44' W 095°01'0 0.0
2017-Nov-10 07:00N 29°44' W 095°01'0 0.0
2017-Nov-10 06:20N 29°44' W 095°01'0 0.0
2017-Nov-10 06:00N 29°44' W 095°01'0 0.0
2017-Nov-10 05:11N 29°44' W 095°01'0 0.0
2017-Nov-10 04:20N 29°44' W 095°01'0 0.0
2017-Nov-10 02:59N 29°44' W 095°01'0 0.1
2017-Nov-10 01:22N 29°44' W 095°01'0 0.2
2017-Nov-10 00:57N 29°44' W 095°01'0 0.0
2017-Nov-10 00:26N 29°44' W 095°01'0 0.0
2017-Nov-09 22:35N 29°44' W 095°01'0 0.2
2017-Nov-09 22:28N 29°44' W 095°01'4 6.3
2017-Nov-09 21:52N 29°46' W 095°05'2 2.6
2017-Nov-09 20:57N 29°44' W 095°03'2 3.4
2017-Nov-09 20:29N 29°44' W 095°01'0 0.0
2017-Nov-09 19:53N 29°44' W 095°01'0 0.4
2017-Nov-09 19:28N 29°44' W 095°01'1 2.1
2017-Nov-09 19:00N 29°44' W 095°03'3 6.6
2017-Nov-09 18:29N 29°46' W 095°06'3 1.7
2017-Nov-09 16:47N 29°44' W 095°03'1 1.7
2017-Nov-09 16:00N 29°44' W 095°02'4 7.3
2017-Nov-09 15:30N 29°46' W 095°05'1 0.4
2017-Nov-09 12:06N 29°46' W 095°06'3 2.9
2017-Nov-09 10:58N 29°44' W 095°03'1 3.2
2017-Nov-09 10:30N 29°44' W 095°01'0 0.3
2017-Nov-09 10:00N 29°44' W 095°01'0 0.3
2017-Nov-09 09:27N 29°44' W 095°01'0 0.0
2017-Nov-09 09:00N 29°44' W 095°01'0 0.0
2017-Nov-09 08:28N 29°44' W 095°01'0 0.0
2017-Nov-09 07:58N 29°44' W 095°01'1 2.0
2017-Nov-09 07:30N 29°43' W 095°01'3 5.9
2017-Nov-09 07:00N 29°41' W 094°59'3 7.0
2017-Nov-09 06:30N 29°38' W 094°58'3 5.4
2017-Nov-09 06:00N 29°37' W 095°01'1 1.6
2017-Nov-09 05:31N 29°37' W 095°01'0 0.1
2017-Nov-09 05:00N 29°37' W 095°02'0 0.0
2017-Nov-09 04:30N 29°37' W 095°02'0 0.0
2017-Nov-09 04:00N 29°37' W 095°02'0 0.0
2017-Nov-09 03:30N 29°37' W 095°02'0 0.0
2017-Nov-09 03:00N 29°37' W 095°02'0 0.0
2017-Nov-09 02:30N 29°37' W 095°02'0 0.0
2017-Nov-09 02:00N 29°37' W 095°02'0 0.0
2017-Nov-09 01:30N 29°37' W 095°02'0 0.0
2017-Nov-09 01:00N 29°37' W 095°02'0 0.0
2017-Nov-09 00:30N 29°37' W 095°02'0 0.0
2017-Nov-09 00:00N 29°37' W 095°02'0 0.0
2017-Nov-08 23:30N 29°37' W 095°02'0 0.0
2017-Nov-08 23:00N 29°37' W 095°02'0 0.0
2017-Nov-08 22:30N 29°37' W 095°02'0 0.0
2017-Nov-08 22:00N 29°37' W 095°02'0 0.0
2017-Nov-08 21:30N 29°37' W 095°02'0 0.0
2017-Nov-08 21:00N 29°37' W 095°02'0 0.0
2017-Nov-08 20:30N 29°37' W 095°02'0 0.0
2017-Nov-08 20:00N 29°37' W 095°02'0 0.0
2017-Nov-08 19:30N 29°37' W 095°02'0 0.0
2017-Nov-08 19:00N 29°37' W 095°02'0 0.0
2017-Nov-08 18:30N 29°37' W 095°02'0 0.1
2017-Nov-08 18:00N 29°37' W 095°01'0 0.0
2017-Nov-08 17:30N 29°37' W 095°01'0 0.0
2017-Nov-08 17:00N 29°37' W 095°01'0 0.0
2017-Nov-08 16:30N 29°37' W 095°01'0 0.9
2017-Nov-08 16:00N 29°37' W 095°01'3 5.7
2017-Nov-08 15:30N 29°37' W 094°58'3 6.4
2017-Nov-08 15:00N 29°40' W 094°59'3 6.6
2017-Nov-08 14:30N 29°42' W 095°01'6 3.7
2017-Nov-08 13:00N 29°47' W 095°04'0 0.3
2017-Nov-08 12:26N 29°47' W 095°04'1 1.4
2017-Nov-08 12:00N 29°47' W 095°04'3 5.6
2017-Nov-08 11:26N 29°44' W 095°03'1 2.9
2017-Nov-08 10:56N 29°44' W 095°01'0 0.0
2017-Nov-08 10:24N 29°44' W 095°01'0 0.2
2017-Nov-08 10:00N 29°44' W 095°01'0 0.1
2017-Nov-08 09:23N 29°44' W 095°01'0 0.0
2017-Nov-08 08:58N 29°44' W 095°01'0 0.1
2017-Nov-08 08:23N 29°44' W 095°01'2 6.5
2017-Nov-08 08:00N 29°45' W 095°04'2 0.8
2017-Nov-08 05:42N 29°46' W 095°06'0 2.3
2017-Nov-08 05:30N 29°46' W 095°06'0 0.1
2017-Nov-08 02:56N 29°46' W 095°05'1 0.7
2017-Nov-08 01:52N 29°46' W 095°06'1 2.0
2017-Nov-08 01:28N 29°45' W 095°06'2 0.1
2017-Nov-07 07:45N 29°44' W 095°08'2 5.6
2017-Nov-07 07:20N 29°45' W 095°06'3 1.2
2017-Nov-07 05:07N 29°44' W 095°03'2 5.8
2017-Nov-07 04:49N 29°43' W 095°01'2 7.5
2017-Nov-07 04:30N 29°42' W 094°59'4 7.9
2017-Nov-07 04:00N 29°38' W 094°58'4 8.0
2017-Nov-07 03:30N 29°34' W 094°56'  
2017-Nov-04 02:03N 29°29' W 094°52'1 8.3
2017-Nov-04 02:00N 29°30' W 094°52'4 8.1
2017-Nov-04 01:30N 29°33' W 094°54'4 8.1
2017-Nov-04 01:00N 29°36' W 094°57'4 8.1
2017-Nov-04 00:30N 29°40' W 094°59'4 7.3
2017-Nov-03 23:58N 29°43' W 095°01'4 7.6
2017-Nov-03 23:26N 29°46' W 095°05'0 0.2
2017-Nov-03 21:51N 29°46' W 095°05'2 5.3
2017-Nov-03 21:23N 29°44' W 095°03'2 5.9
2017-Nov-03 21:00N 29°43' W 095°01'3 6.4
2017-Nov-03 20:29N 29°40' W 094°59'3 6.7
2017-Nov-03 19:58N 29°37' W 094°58'3 6.9
2017-Nov-03 19:30N 29°37' W 095°01'0 0.4
2017-Nov-03 19:00N 29°37' W 095°02'0 0.0
2017-Nov-03 18:30N 29°37' W 095°02'0 0.0
2017-Nov-03 18:00N 29°37' W 095°02'3 5.3
2017-Nov-03 17:27N 29°37' W 094°58'4 8.2
2017-Nov-03 17:00N 29°34' W 094°55'  
Track history (hours):
 
Tides and Currents Weather Stations Pressure Air Temp Water Temp Dewpoint Dewpoint Depression Visibility Wind Speed Wind Dir Waves Ship Positions

Grace Nicole

Owner: Florida Marine, LLC, Mandeville, LA. More information available from US FCC via Universal Licensing System and Coast Guard Vessel Documentation Center.

Last reported at 2017-Nov-12 15:24 UTC. Time now 2017-Nov-19 06:45 UTC.
Position N 29°51' W 091°55'.

Length 28 m; draft 9.6 m.

Type: Towing. MMSI: 366993380.

Date/timePositionNaut miles runAvg speedWind from/ knotsBaromVisibWave heightAir tempDewpointWater temp
2017-Nov-12 15:24N 29°51' W 091°55'2 5.1
2017-Nov-12 14:58N 29°50' W 091°57'2 4.9
2017-Nov-12 14:28N 29°50' W 091°60'3 5.5
2017-Nov-12 13:56N 29°49' W 092°03'2 5.2
2017-Nov-12 13:28N 29°48' W 092°06'2 5.1
2017-Nov-12 13:00N 29°47' W 092°08'2 4.8
2017-Nov-12 12:30N 29°47' W 092°11'2 2.6
2017-Nov-12 11:54N 29°47' W 092°13'1 0.9
2017-Nov-12 10:43N 29°48' W 092°14'0 0.0
2017-Nov-12 10:29N 29°48' W 092°14'0 0.0
2017-Nov-12 09:59N 29°48' W 092°14'0 0.4
2017-Nov-12 09:29N 29°48' W 092°14'1 1.1
2017-Nov-12 08:59N 29°48' W 092°15'0 0.9
2017-Nov-12 08:29N 29°48' W 092°15'137 3.8
2017-Nov-10 20:31N 29°29' W 094°52'1 6.6
2017-Nov-10 20:25N 29°30' W 094°52'3 6.3
2017-Nov-10 20:00N 29°32' W 094°54'3 6.5
2017-Nov-10 19:30N 29°34' W 094°56'3 6.4
2017-Nov-10 19:00N 29°37' W 094°58'3 6.5
2017-Nov-10 18:30N 29°40' W 094°59'4 6.1
2017-Nov-10 17:52N 29°44' W 095°01'0 0.1
2017-Nov-10 14:36N 29°44' W 095°01'0 0.0
2017-Nov-10 08:55N 29°44' W 095°01'0 0.0
2017-Nov-10 07:22N 29°44' W 095°01'0 0.0
2017-Nov-10 07:00N 29°44' W 095°01'0 0.0
2017-Nov-10 06:20N 29°44' W 095°01'0 0.0
2017-Nov-10 06:00N 29°44' W 095°01'0 0.0
2017-Nov-10 05:11N 29°44' W 095°01'0 0.0
2017-Nov-10 04:20N 29°44' W 095°01'0 0.0
2017-Nov-10 02:59N 29°44' W 095°01'0 0.1
2017-Nov-10 01:22N 29°44' W 095°01'0 0.2
2017-Nov-10 00:57N 29°44' W 095°01'0 0.0
2017-Nov-10 00:26N 29°44' W 095°01'0 0.0
2017-Nov-09 22:35N 29°44' W 095°01'0 0.2
2017-Nov-09 22:28N 29°44' W 095°01'4 6.3
2017-Nov-09 21:52N 29°46' W 095°05'2 2.6
2017-Nov-09 20:57N 29°44' W 095°03'2 3.4
2017-Nov-09 20:29N 29°44' W 095°01'0 0.0
2017-Nov-09 19:53N 29°44' W 095°01'0 0.4
2017-Nov-09 19:28N 29°44' W 095°01'1 2.1
2017-Nov-09 19:00N 29°44' W 095°03'3 6.6
2017-Nov-09 18:29N 29°46' W 095°06'3 1.7
2017-Nov-09 16:47N 29°44' W 095°03'1 1.7
2017-Nov-09 16:00N 29°44' W 095°02'4 7.3
2017-Nov-09 15:30N 29°46' W 095°05'1 0.4
2017-Nov-09 12:06N 29°46' W 095°06'3 2.9
2017-Nov-09 10:58N 29°44' W 095°03'1 3.2
2017-Nov-09 10:30N 29°44' W 095°01'0 0.3
2017-Nov-09 10:00N 29°44' W 095°01'0 0.3
2017-Nov-09 09:27N 29°44' W 095°01'0 0.0
2017-Nov-09 09:00N 29°44' W 095°01'0 0.0
2017-Nov-09 08:28N 29°44' W 095°01'0 0.0
2017-Nov-09 07:58N 29°44' W 095°01'1 2.0
2017-Nov-09 07:30N 29°43' W 095°01'3 5.9
2017-Nov-09 07:00N 29°41' W 094°59'3 7.0
2017-Nov-09 06:30N 29°38' W 094°58'3 5.4
2017-Nov-09 06:00N 29°37' W 095°01'1 1.6
2017-Nov-09 05:31N 29°37' W 095°01'0 0.1
2017-Nov-09 05:00N 29°37' W 095°02'0 0.0
2017-Nov-09 04:30N 29°37' W 095°02'0 0.0
2017-Nov-09 04:00N 29°37' W 095°02'0 0.0
2017-Nov-09 03:30N 29°37' W 095°02'0 0.0
2017-Nov-09 03:00N 29°37' W 095°02'0 0.0
2017-Nov-09 02:30N 29°37' W 095°02'0 0.0
2017-Nov-09 02:00N 29°37' W 095°02'0 0.0
2017-Nov-09 01:30N 29°37' W 095°02'0 0.0
2017-Nov-09 01:00N 29°37' W 095°02'0 0.0
2017-Nov-09 00:30N 29°37' W 095°02'0 0.0
2017-Nov-09 00:00N 29°37' W 095°02'0 0.0
2017-Nov-08 23:30N 29°37' W 095°02'0 0.0
2017-Nov-08 23:00N 29°37' W 095°02'0 0.0
2017-Nov-08 22:30N 29°37' W 095°02'0 0.0
2017-Nov-08 22:00N 29°37' W 095°02'0 0.0
2017-Nov-08 21:30N 29°37' W 095°02'0 0.0
2017-Nov-08 21:00N 29°37' W 095°02'0 0.0
2017-Nov-08 20:30N 29°37' W 095°02'0 0.0
2017-Nov-08 20:00N 29°37' W 095°02'0 0.0
2017-Nov-08 19:30N 29°37' W 095°02'0 0.0
2017-Nov-08 19:00N 29°37' W 095°02'0 0.0
2017-Nov-08 18:30N 29°37' W 095°02'0 0.1
2017-Nov-08 18:00N 29°37' W 095°01'0 0.0
2017-Nov-08 17:30N 29°37' W 095°01'0 0.0
2017-Nov-08 17:00N 29°37' W 095°01'0 0.0
2017-Nov-08 16:30N 29°37' W 095°01'0 0.9
2017-Nov-08 16:00N 29°37' W 095°01'3 5.7
2017-Nov-08 15:30N 29°37' W 094°58'3 6.4
2017-Nov-08 15:00N 29°40' W 094°59'3 6.6
2017-Nov-08 14:30N 29°42' W 095°01'6 3.7
2017-Nov-08 13:00N 29°47' W 095°04'0 0.3
2017-Nov-08 12:26N 29°47' W 095°04'1 1.4
2017-Nov-08 12:00N 29°47' W 095°04'3 5.6
2017-Nov-08 11:26N 29°44' W 095°03'1 2.9
2017-Nov-08 10:56N 29°44' W 095°01'0 0.0
2017-Nov-08 10:24N 29°44' W 095°01'0 0.2
2017-Nov-08 10:00N 29°44' W 095°01'0 0.1
2017-Nov-08 09:23N 29°44' W 095°01'0 0.0
2017-Nov-08 08:58N 29°44' W 095°01'0 0.1
2017-Nov-08 08:23N 29°44' W 095°01'2 6.5
2017-Nov-08 08:00N 29°45' W 095°04'2 0.8
2017-Nov-08 05:42N 29°46' W 095°06'0 2.3
2017-Nov-08 05:30N 29°46' W 095°06'0 0.1
2017-Nov-08 02:56N 29°46' W 095°05'1 0.7
2017-Nov-08 01:52N 29°46' W 095°06'1 2.0
2017-Nov-08 01:28N 29°45' W 095°06'2 0.1
2017-Nov-07 07:45N 29°44' W 095°08'2 5.6
2017-Nov-07 07:20N 29°45' W 095°06'3 1.2
2017-Nov-07 05:07N 29°44' W 095°03'2 5.8
2017-Nov-07 04:49N 29°43' W 095°01'2 7.5
2017-Nov-07 04:30N 29°42' W 094°59'4 7.9
2017-Nov-07 04:00N 29°38' W 094°58'4 8.0
2017-Nov-07 03:30N 29°34' W 094°56'  
2017-Nov-04 02:03N 29°29' W 094°52'1 8.3
2017-Nov-04 02:00N 29°30' W 094°52'4 8.1
2017-Nov-04 01:30N 29°33' W 094°54'4 8.1
2017-Nov-04 01:00N 29°36' W 094°57'4 8.1
2017-Nov-04 00:30N 29°40' W 094°59'4 7.3
2017-Nov-03 23:58N 29°43' W 095°01'4 7.6
2017-Nov-03 23:26N 29°46' W 095°05'0 0.2
2017-Nov-03 21:51N 29°46' W 095°05'2 5.3
2017-Nov-03 21:23N 29°44' W 095°03'2 5.9
2017-Nov-03 21:00N 29°43' W 095°01'3 6.4
2017-Nov-03 20:29N 29°40' W 094°59'3 6.7
2017-Nov-03 19:58N 29°37' W 094°58'3 6.9
2017-Nov-03 19:30N 29°37' W 095°01'0 0.4
2017-Nov-03 19:00N 29°37' W 095°02'0 0.0
2017-Nov-03 18:30N 29°37' W 095°02'0 0.0
2017-Nov-03 18:00N 29°37' W 095°02'3 5.3
2017-Nov-03 17:27N 29°37' W 094°58'4 8.2
2017-Nov-03 17:00N 29°34' W 094°55'  

Dump ship's entire track history